createdAt,value
2023-03-16T00:02:02.571Z,2.00
2023-03-16T00:04:30.429Z,2.03
2023-03-16T00:06:58.991Z,1.92
2023-03-16T00:09:30.898Z,1.80
2023-03-16T00:11:58.653Z,2.10
2023-03-16T00:14:25.883Z,1.70
2023-03-16T00:16:53.290Z,1.88
2023-03-16T00:19:22.794Z,2.03
2023-03-16T00:21:51.146Z,1.75
2023-03-16T00:24:20.006Z,2.13
2023-03-16T00:26:47.317Z,1.95
2023-03-16T00:29:14.582Z,1.90
2023-03-16T00:31:43.746Z,2.05
2023-03-16T00:34:11.102Z,1.80
2023-03-16T00:36:38.339Z,1.90
2023-03-16T00:39:06.670Z,1.70
2023-03-16T00:41:37.762Z,1.90
2023-03-16T00:44:05.041Z,1.70
2023-03-16T00:46:32.298Z,1.85
2023-03-16T00:48:59.601Z,1.77
2023-03-16T00:51:26.862Z,1.58
2023-03-16T00:53:54.069Z,1.60
2023-03-16T00:56:21.452Z,1.33
2023-03-16T00:58:49.984Z,1.60
2023-03-16T01:01:18.774Z,1.50
2023-03-16T01:03:46.301Z,1.90
2023-03-16T01:06:13.923Z,2.00
2023-03-16T01:08:41.785Z,1.60
2023-03-16T01:11:10.294Z,1.45
2023-03-16T01:13:37.596Z,1.70
2023-03-16T01:16:06.624Z,1.60
2023-03-16T01:18:34.388Z,1.60
2023-03-16T01:21:01.642Z,1.50
2023-03-16T01:23:30.058Z,1.50
2023-03-16T01:25:57.296Z,1.58
2023-03-16T01:28:25.187Z,1.73
2023-03-16T01:30:53.966Z,1.75
2023-03-16T01:33:23.235Z,1.45
2023-03-16T01:35:53.842Z,1.70
2023-03-16T01:38:21.585Z,1.58
2023-03-16T01:40:50.791Z,1.27
2023-03-16T01:43:18.370Z,1.37
2023-03-16T01:46:09.640Z,1.50
2023-03-16T01:48:38.444Z,1.52
2023-03-16T01:51:06.288Z,1.40
2023-03-16T01:53:34.274Z,1.58
2023-03-16T01:56:01.734Z,1.40
2023-03-16T01:58:28.947Z,1.50
2023-03-16T02:00:57.986Z,1.33
2023-03-16T02:03:25.358Z,1.58
2023-03-16T02:05:54.272Z,1.63
2023-03-16T02:08:22.759Z,1.48
2023-03-16T02:10:49.972Z,1.45
2023-03-16T02:13:17.184Z,1.42
2023-03-16T02:15:44.464Z,1.90
2023-03-16T02:18:11.675Z,1.80
2023-03-16T02:20:40.157Z,1.92
2023-03-16T02:23:09.384Z,1.70
2023-03-16T02:25:39.167Z,1.73
2023-03-16T02:28:07.278Z,2.03
2023-03-16T02:30:35.813Z,1.58
2023-03-16T02:33:04.831Z,1.73
2023-03-16T02:35:32.201Z,1.83
2023-03-16T02:37:59.451Z,1.40
2023-03-16T02:40:27.621Z,1.73
2023-03-16T02:42:56.277Z,1.67
2023-03-16T02:45:23.885Z,1.63
2023-03-16T02:47:53.304Z,1.73
2023-03-16T02:50:20.840Z,1.42
2023-03-16T02:52:48.465Z,1.67
2023-03-16T02:55:15.734Z,1.58
2023-03-16T02:57:43.052Z,1.50
2023-03-16T03:00:14.211Z,1.48
2023-03-16T03:02:41.839Z,1.70
2023-03-16T03:05:11.500Z,1.60
2023-03-16T03:07:38.741Z,1.40
2023-03-16T03:10:06.753Z,1.35
2023-03-16T03:12:34.032Z,1.77
2023-03-16T03:15:01.219Z,1.48
2023-03-16T03:17:30.094Z,1.65
2023-03-16T03:19:57.647Z,1.30
2023-03-16T03:22:26.244Z,1.50
2023-03-16T03:24:53.568Z,1.63
2023-03-16T03:27:22.399Z,1.50
2023-03-16T03:29:49.665Z,1.42
2023-03-16T03:32:16.887Z,1.52
2023-03-16T03:34:44.139Z,1.50
2023-03-16T03:37:11.421Z,1.42
2023-03-16T03:39:40.730Z,1.27
2023-03-16T03:42:08.252Z,1.45
2023-03-16T03:44:35.466Z,1.60
2023-03-16T03:47:02.812Z,1.27
2023-03-16T03:49:30.142Z,1.50
2023-03-16T03:51:59.040Z,1.70
2023-03-16T03:54:26.245Z,1.50
2023-03-16T03:56:54.819Z,1.70
2023-03-16T03:59:22.463Z,2.13
2023-03-16T04:01:49.943Z,1.73
2023-03-16T04:04:17.206Z,1.75
2023-03-16T04:06:44.464Z,1.70
2023-03-16T04:09:11.671Z,1.70
2023-03-16T04:11:38.921Z,1.40
2023-03-16T04:14:07.625Z,1.73
2023-03-16T04:16:35.001Z,1.70
2023-03-16T04:19:02.551Z,1.60
2023-03-16T04:21:29.873Z,1.48
2023-03-16T04:23:57.101Z,1.80
2023-03-16T04:26:25.518Z,1.70
2023-03-16T04:28:53.496Z,1.98
2023-03-16T04:31:22.511Z,1.48
2023-03-16T04:33:49.849Z,1.55
2023-03-16T04:36:17.075Z,1.77
2023-03-16T04:38:44.521Z,1.55
2023-03-16T04:41:12.251Z,2.03
2023-03-16T04:43:39.454Z,2.20
2023-03-16T04:46:07.084Z,2.35
2023-03-16T04:48:35.703Z,2.00
2023-03-16T04:51:03.780Z,1.92
2023-03-16T04:53:31.735Z,2.00
2023-03-16T04:55:58.998Z,2.05
2023-03-16T04:58:26.336Z,2.05
2023-03-16T05:00:53.617Z,2.17
2023-03-16T05:03:21.563Z,2.05
2023-03-16T05:05:50.831Z,1.80
2023-03-16T05:08:18.080Z,1.90
2023-03-16T05:10:47.881Z,2.13
2023-03-16T05:13:15.137Z,2.00
2023-03-16T05:15:42.497Z,2.05
2023-03-16T05:18:09.761Z,1.83
2023-03-16T05:20:36.994Z,1.92
2023-03-16T05:23:07.427Z,1.80
2023-03-16T05:25:34.684Z,1.80
2023-03-16T05:28:01.958Z,1.83
2023-03-16T05:30:29.498Z,1.75
2023-03-16T05:32:57.986Z,1.90
2023-03-16T05:35:25.273Z,2.10
2023-03-16T05:37:52.504Z,1.80
2023-03-16T05:40:22.976Z,1.90
2023-03-16T05:42:50.571Z,2.00
2023-03-16T05:45:17.873Z,1.90
2023-03-16T05:47:45.115Z,2.10
2023-03-16T05:50:12.613Z,1.90
2023-03-16T05:52:39.862Z,2.60
2023-03-16T05:55:07.587Z,2.05
2023-03-16T05:57:36.126Z,1.90
2023-03-16T06:00:10.973Z,2.17
2023-03-16T06:02:38.254Z,2.08
2023-03-16T06:05:05.786Z,2.20
2023-03-16T06:07:33.011Z,1.92
2023-03-16T06:10:00.224Z,2.03
2023-03-16T06:12:27.518Z,2.00
2023-03-16T06:14:56.024Z,2.28
2023-03-16T06:17:23.210Z,2.10
2023-03-16T06:19:50.860Z,2.03
2023-03-16T06:22:18.239Z,2.10
2023-03-16T06:24:45.581Z,2.30
2023-03-16T06:27:13.277Z,2.60
2023-03-16T06:29:40.545Z,2.50
2023-03-16T06:32:09.072Z,2.50
2023-03-16T06:34:38.184Z,2.63
2023-03-16T06:37:05.708Z,3.30
2023-03-16T06:39:32.929Z,3.22
2023-03-16T06:42:00.127Z,3.13
2023-03-16T06:44:27.698Z,3.30
2023-03-16T06:46:54.904Z,3.35
2023-03-16T06:49:23.406Z,3.10
2023-03-16T06:51:50.701Z,3.33
2023-03-16T06:54:17.968Z,3.10
2023-03-16T06:56:46.389Z,3.25
2023-03-16T06:59:13.748Z,3.65
2023-03-16T07:01:42.090Z,3.83
2023-03-16T07:04:09.396Z,3.58
2023-03-16T07:06:37.997Z,6.93
2023-03-16T07:09:05.484Z,7.75
2023-03-16T07:11:33.299Z,6.38
2023-03-16T07:14:01.463Z,5.75
2023-03-16T07:16:28.712Z,6.57
2023-03-16T07:18:55.916Z,6.13
2023-03-16T07:21:23.125Z,6.05
2023-03-16T07:23:52.323Z,6.70
2023-03-16T07:26:19.520Z,7.57
2023-03-16T07:28:46.712Z,7.20
2023-03-16T07:31:14.699Z,6.10
2023-03-16T07:33:41.891Z,6.47
2023-03-16T07:36:10.504Z,6.40
2023-03-16T07:38:37.837Z,5.60
2023-03-16T07:41:06.474Z,5.93
2023-03-16T07:43:34.423Z,4.60
2023-03-16T07:46:02.129Z,4.70
2023-03-16T07:48:29.349Z,4.80
2023-03-16T07:50:56.533Z,4.40
2023-03-16T07:53:23.764Z,4.32
2023-03-16T07:55:50.975Z,4.05
2023-03-16T07:58:19.480Z,4.03
2023-03-16T08:00:46.685Z,3.53
2023-03-16T08:03:13.951Z,4.05
2023-03-16T08:05:41.564Z,3.47
2023-03-16T08:08:09.542Z,2.60
2023-03-16T08:10:37.226Z,3.28
2023-03-16T08:13:04.717Z,2.92
2023-03-16T08:15:34.914Z,2.97
2023-03-16T08:20:31.476Z,8.40
2023-03-16T08:22:58.951Z,9.40
2023-03-16T08:25:26.484Z,11.23
2023-03-16T08:27:53.778Z,11.60
2023-03-16T08:30:22.518Z,10.32
2023-03-16T08:32:51.051Z,10.50
2023-03-16T08:35:18.985Z,11.02
2023-03-16T08:37:47.307Z,11.73
2023-03-16T08:40:16.131Z,33.83
2023-03-16T08:42:44.770Z,29.15
2023-03-16T08:45:14.116Z,26.38
2023-03-16T08:47:41.665Z,20.73
2023-03-16T08:50:11.856Z,18.75
2023-03-16T08:55:07.201Z,15.80
2023-03-16T08:57:34.549Z,15.23
2023-03-16T09:00:01.809Z,14.05
2023-03-16T09:02:29.049Z,13.38
2023-03-16T09:04:56.438Z,11.50
2023-03-16T09:07:24.959Z,12.00
2023-03-16T09:09:52.594Z,10.57
2023-03-16T09:12:20.572Z,10.02
2023-03-16T09:14:48.884Z,9.85
2023-03-16T09:17:16.108Z,9.95
2023-03-16T09:19:52.387Z,8.98
2023-03-16T09:22:21.105Z,6.88
2023-03-16T09:24:49.671Z,7.20
2023-03-16T09:27:17.078Z,8.68
2023-03-16T09:29:45.184Z,10.55
2023-03-16T09:32:12.933Z,9.80
2023-03-16T09:34:40.114Z,9.98
2023-03-16T09:37:07.427Z,8.88
2023-03-16T09:39:34.620Z,8.07
2023-03-16T09:42:04.275Z,8.20
2023-03-16T09:44:34.280Z,8.05
2023-03-16T09:47:02.264Z,8.13
2023-03-16T09:49:31.253Z,8.77
2023-03-16T09:52:00.569Z,10.07
2023-03-16T09:54:28.398Z,9.95
2023-03-16T09:56:55.627Z,10.68
2023-03-16T09:59:24.629Z,9.27
2023-03-16T10:01:55.223Z,10.38
2023-03-16T10:04:26.412Z,9.00
2023-03-16T10:06:56.147Z,7.28
2023-03-16T10:09:27.023Z,8.38
2023-03-16T10:11:54.275Z,9.55
2023-03-16T10:14:22.935Z,8.05
2023-03-16T10:16:52.572Z,7.28
2023-03-16T10:19:21.412Z,7.22
2023-03-16T10:21:48.901Z,6.90
2023-03-16T10:24:25.121Z,5.65
2023-03-16T10:26:55.280Z,5.93
2023-03-16T10:31:49.660Z,5.20
2023-03-16T10:34:18.237Z,5.43
2023-03-16T10:36:45.693Z,5.18
2023-03-16T10:39:13.290Z,6.22
2023-03-16T10:41:40.964Z,5.30
2023-03-16T10:44:11.922Z,5.40
2023-03-16T10:46:40.117Z,5.50
2023-03-16T10:49:17.927Z,6.50
2023-03-16T10:51:46.575Z,5.60
2023-03-16T10:54:16.131Z,5.40
2023-03-16T10:56:43.374Z,5.50
2023-03-16T10:59:15.213Z,5.20
2023-03-16T11:01:45.314Z,5.55
2023-03-16T11:06:39.849Z,4.47
2023-03-16T11:09:08.876Z,4.60
2023-03-16T11:11:36.274Z,3.80
2023-03-16T11:14:04.414Z,4.07
2023-03-16T11:16:32.587Z,3.63
2023-03-16T11:19:00.075Z,3.72
2023-03-16T11:21:31.969Z,3.65
2023-03-16T11:23:59.185Z,3.45
2023-03-16T11:26:28.615Z,3.22
2023-03-16T11:28:59.147Z,2.90
2023-03-16T11:31:30.004Z,3.17
2023-03-16T11:33:57.468Z,3.05
2023-03-16T11:36:29.819Z,2.75
2023-03-16T11:38:59.521Z,3.15
2023-03-16T11:41:29.222Z,3.00
2023-03-16T11:43:56.794Z,3.13
2023-03-16T11:46:24.256Z,2.80
2023-03-16T11:48:54.187Z,2.75
2023-03-16T11:51:28.595Z,2.58
2023-03-16T11:53:58.599Z,2.47
2023-03-16T11:56:34.298Z,2.60
2023-03-16T11:59:22.372Z,2.55
2023-03-16T12:02:00.879Z,2.53
2023-03-16T12:04:34.130Z,2.03
2023-03-16T12:07:04.722Z,2.35
2023-03-16T12:09:44.413Z,2.22
2023-03-16T12:12:15.619Z,1.95
2023-03-16T12:14:44.019Z,2.00
2023-03-16T12:17:13.060Z,2.22
2023-03-16T12:19:41.685Z,2.10
2023-03-16T12:22:11.372Z,1.85
2023-03-16T12:24:40.627Z,2.13
2023-03-16T12:27:09.148Z,2.23
2023-03-16T12:29:41.392Z,2.40
2023-03-16T12:32:09.811Z,2.25
2023-03-16T12:34:38.454Z,2.28
2023-03-16T12:37:07.981Z,2.53
2023-03-16T12:41:59.139Z,2.28
2023-03-16T12:44:28.659Z,2.20
2023-03-16T12:46:59.150Z,2.38
2023-03-16T12:49:26.377Z,2.28
2023-03-16T12:51:59.427Z,2.05
2023-03-16T12:54:27.471Z,2.03
2023-03-16T12:56:56.023Z,2.10
2023-03-16T12:59:23.812Z,2.30
2023-03-16T13:01:51.828Z,1.80
2023-03-16T13:04:20.879Z,1.95
2023-03-16T13:06:50.412Z,1.90
2023-03-16T13:09:18.890Z,1.88
2023-03-16T13:11:50.104Z,2.35
2023-03-16T13:14:18.007Z,2.17
2023-03-16T13:16:47.557Z,1.80
2023-03-16T13:19:22.885Z,1.73
2023-03-16T13:22:00.317Z,2.08
2023-03-16T13:24:28.420Z,1.80
2023-03-16T13:26:58.897Z,1.70
2023-03-16T13:29:27.008Z,1.80
2023-03-16T13:31:54.405Z,1.58
2023-03-16T13:34:23.557Z,1.77
2023-03-16T13:36:52.467Z,1.65
2023-03-16T13:39:20.472Z,1.92
2023-03-16T13:41:59.511Z,1.75
2023-03-16T13:44:27.128Z,1.80
2023-03-16T13:46:54.723Z,1.70
2023-03-16T13:49:23.270Z,1.80
2023-03-16T13:51:50.483Z,1.60
2023-03-16T13:54:20.359Z,1.60
2023-03-16T13:56:47.550Z,2.03
2023-03-16T13:59:15.602Z,1.60
2023-03-16T14:01:44.065Z,1.63
2023-03-16T14:04:13.643Z,1.70
2023-03-16T14:06:42.272Z,1.30
2023-03-16T14:09:14.159Z,1.40
2023-03-16T14:11:42.639Z,1.40
2023-03-16T14:14:14.488Z,1.58
2023-03-16T14:16:42.396Z,1.35
2023-03-16T14:19:13.526Z,1.40
2023-03-16T14:21:43.742Z,1.55
2023-03-16T14:26:41.571Z,1.50
2023-03-16T14:29:09.471Z,1.35
2023-03-16T14:31:38.238Z,1.48
2023-03-16T14:34:08.534Z,1.50
2023-03-16T14:36:36.077Z,1.23
2023-03-16T14:39:11.855Z,1.50
2023-03-16T14:41:39.832Z,1.38
2023-03-16T14:44:07.092Z,1.60
2023-03-16T14:46:34.787Z,1.50
2023-03-16T14:49:03.467Z,1.58
2023-03-16T14:51:31.567Z,1.50
2023-03-16T14:53:58.806Z,1.58
2023-03-16T14:56:33.817Z,1.40
2023-03-16T14:59:01.587Z,1.40
2023-03-16T15:01:28.822Z,1.17
2023-03-16T15:03:56.500Z,1.50
2023-03-16T15:06:24.234Z,1.50
2023-03-16T15:08:51.577Z,1.70
2023-03-16T15:11:21.422Z,1.85
2023-03-16T15:14:04.126Z,1.73
2023-03-16T15:16:31.470Z,1.75
2023-03-16T15:18:58.730Z,1.65
2023-03-16T15:21:29.440Z,1.67
2023-03-16T15:23:58.498Z,1.65
2023-03-16T15:26:27.160Z,1.38
2023-03-16T15:28:55.837Z,1.58
2023-03-16T15:31:23.130Z,1.83
2023-03-16T15:33:50.371Z,1.73
2023-03-16T15:36:18.199Z,1.63
2023-03-16T15:38:46.025Z,1.48
2023-03-16T15:41:13.309Z,1.65
2023-03-16T15:43:40.675Z,1.67
2023-03-16T15:46:10.382Z,1.48
2023-03-16T15:48:37.598Z,1.48
2023-03-16T15:51:06.414Z,1.33
2023-03-16T15:53:35.687Z,1.35
2023-03-16T15:56:03.773Z,1.52
2023-03-16T15:58:31.486Z,1.33
2023-03-16T16:00:59.446Z,1.33
2023-03-16T16:03:27.974Z,1.30
2023-03-16T16:05:55.462Z,1.42
2023-03-16T16:08:22.633Z,1.58
2023-03-16T16:10:50.127Z,1.35
2023-03-16T16:13:24.818Z,1.50
2023-03-16T16:15:54.720Z,1.17
2023-03-16T16:18:31.748Z,1.17
2023-03-16T16:20:59.146Z,1.13
2023-03-16T16:23:26.500Z,1.30
2023-03-16T16:25:53.721Z,1.38
2023-03-16T16:28:21.666Z,1.50
2023-03-16T16:30:48.924Z,1.30
2023-03-16T16:33:23.009Z,1.48
2023-03-16T16:35:51.838Z,1.30
2023-03-16T16:38:19.114Z,1.30
2023-03-16T16:40:47.514Z,1.50
2023-03-16T16:43:29.878Z,1.20
2023-03-16T16:45:57.133Z,1.90
2023-03-16T16:48:32.534Z,1.55
2023-03-16T16:51:01.326Z,1.55
2023-03-16T16:53:28.531Z,1.67
2023-03-16T16:55:55.849Z,1.40
2023-03-16T16:58:24.795Z,1.40
2023-03-16T17:00:52.765Z,1.40
2023-03-16T17:03:21.362Z,1.40
2023-03-16T17:05:48.571Z,1.52
2023-03-16T17:08:17.071Z,1.40
2023-03-16T17:10:44.290Z,1.55
2023-03-16T17:13:15.209Z,1.42
2023-03-16T17:15:43.897Z,1.42
2023-03-16T17:18:11.531Z,1.48
2023-03-16T17:20:38.767Z,1.50
2023-03-16T17:23:06.026Z,1.65
2023-03-16T17:25:34.593Z,1.48
2023-03-16T17:28:02.323Z,1.52
2023-03-16T17:30:29.841Z,1.60
2023-03-16T17:32:57.818Z,1.60
2023-03-16T17:35:25.059Z,1.25
2023-03-16T17:37:52.254Z,1.48
2023-03-16T17:40:20.110Z,1.58
2023-03-16T17:42:48.868Z,1.40
2023-03-16T17:45:17.666Z,1.70
2023-03-16T17:47:44.992Z,1.60
2023-03-16T17:50:16.783Z,1.40
2023-03-16T17:52:43.962Z,1.30
2023-03-16T17:55:11.380Z,1.20
2023-03-16T17:57:38.680Z,1.40
2023-03-16T18:00:08.816Z,1.90
2023-03-16T18:05:05.429Z,1.83
2023-03-16T18:07:32.636Z,1.30
2023-03-16T18:09:59.959Z,1.80
2023-03-16T18:12:27.190Z,1.70
2023-03-16T18:14:58.440Z,1.45
2023-03-16T18:17:28.449Z,1.70
2023-03-16T18:19:55.649Z,1.50
2023-03-16T18:22:24.472Z,1.52
2023-03-16T18:24:51.864Z,1.60
2023-03-16T18:27:19.330Z,1.50
2023-03-16T18:29:46.877Z,1.42
2023-03-16T18:32:14.712Z,1.40
2023-03-16T18:34:43.209Z,1.60
2023-03-16T18:37:11.652Z,1.65
2023-03-16T18:39:38.882Z,1.67
2023-03-16T18:42:07.456Z,1.70
2023-03-16T18:44:34.700Z,1.63
2023-03-16T18:47:02.630Z,1.60
2023-03-16T18:49:30.609Z,1.70
2023-03-16T18:51:59.243Z,1.58
2023-03-16T18:54:27.038Z,1.80
2023-03-16T18:56:54.730Z,1.80
2023-03-16T18:59:22.033Z,1.63
2023-03-16T19:01:49.263Z,1.70
2023-03-16T19:04:19.668Z,1.70
2023-03-16T19:06:47.148Z,1.60
2023-03-16T19:09:17.463Z,1.90
2023-03-16T19:11:44.700Z,1.70
2023-03-16T19:14:14.602Z,1.52
2023-03-16T19:16:41.824Z,1.35
2023-03-16T19:19:09.178Z,1.60
2023-03-16T19:21:36.608Z,1.77
2023-03-16T19:24:05.231Z,1.67
2023-03-16T19:26:34.002Z,1.50
2023-03-16T19:29:01.392Z,1.50
2023-03-16T19:31:29.046Z,1.90
2023-03-16T19:33:56.704Z,2.10
2023-03-16T19:36:24.667Z,2.08
2023-03-16T19:38:52.059Z,1.60
2023-03-16T19:41:20.745Z,1.80
2023-03-16T19:43:49.257Z,1.70
2023-03-16T19:46:16.583Z,1.63
2023-03-16T19:48:43.823Z,1.88
2023-03-16T19:51:11.770Z,1.73
2023-03-16T19:53:38.977Z,1.52
2023-03-16T19:56:06.816Z,1.70
2023-03-16T19:58:35.328Z,1.52
2023-03-16T20:01:03.891Z,1.70
2023-03-16T20:03:31.601Z,1.80
2023-03-16T20:05:58.836Z,1.85
2023-03-16T20:08:26.386Z,1.60
2023-03-16T20:10:54.297Z,1.70
2023-03-16T20:13:21.489Z,1.65
2023-03-16T20:15:48.718Z,1.83
2023-03-16T20:18:18.201Z,1.90
2023-03-16T20:20:45.915Z,1.60
2023-03-16T20:23:20.128Z,1.70
2023-03-16T20:25:47.564Z,1.45
2023-03-16T20:28:17.206Z,1.77
2023-03-16T20:30:44.440Z,1.27
2023-03-16T20:33:13.619Z,2.45
2023-03-16T20:35:42.132Z,2.10
2023-03-16T20:38:11.439Z,2.15
2023-03-16T20:40:38.704Z,1.90
2023-03-16T20:43:06.500Z,1.90
2023-03-16T20:45:34.221Z,2.15
2023-03-16T20:48:01.723Z,1.80
2023-03-16T20:50:29.752Z,1.85
2023-03-16T20:52:58.285Z,1.92
2023-03-16T20:55:25.806Z,2.20
2023-03-16T20:57:53.264Z,2.05
2023-03-16T21:00:30.643Z,2.00
2023-03-16T21:02:58.618Z,2.28
2023-03-16T21:05:25.975Z,2.20
2023-03-16T21:07:53.267Z,1.77
2023-03-16T21:10:23.656Z,1.80
2023-03-16T21:12:51.543Z,1.95
2023-03-16T21:15:20.871Z,1.80
2023-03-16T21:17:48.070Z,1.87
2023-03-16T21:20:16.919Z,2.03
2023-03-16T21:22:44.140Z,1.95
2023-03-16T21:25:15.753Z,1.92
2023-03-16T21:27:44.294Z,1.58
2023-03-16T21:30:13.191Z,2.00
2023-03-16T21:32:40.576Z,1.90
2023-03-16T21:35:10.301Z,1.88
2023-03-16T21:37:37.520Z,1.83
2023-03-16T21:40:09.502Z,1.80
2023-03-16T21:42:36.957Z,1.90
2023-03-16T21:45:05.877Z,1.80
2023-03-16T21:47:33.058Z,1.90
2023-03-16T21:50:01.663Z,1.95
2023-03-16T21:52:30.078Z,2.15
2023-03-16T21:54:57.644Z,1.70
2023-03-16T21:57:24.957Z,1.52
2023-03-16T21:59:52.136Z,2.20
2023-03-16T22:02:21.942Z,1.80
2023-03-16T22:04:49.238Z,1.80
2023-03-16T22:07:16.450Z,1.75
2023-03-16T22:09:43.646Z,2.00
2023-03-16T22:12:11.164Z,1.67
2023-03-16T22:14:38.345Z,1.73
2023-03-16T22:17:05.789Z,1.70
2023-03-16T22:19:34.307Z,1.75
2023-03-16T22:22:01.542Z,1.73
2023-03-16T22:24:29.298Z,2.05
2023-03-16T22:26:56.497Z,1.98
2023-03-16T22:29:25.102Z,1.75
2023-03-16T22:31:53.577Z,1.60
2023-03-16T22:34:25.381Z,1.90
2023-03-16T22:36:53.919Z,1.85
2023-03-16T22:39:21.131Z,1.58
2023-03-16T22:41:48.475Z,1.60
2023-03-16T22:44:17.689Z,1.50
2023-03-16T22:46:45.022Z,1.77
2023-03-16T22:49:14.798Z,1.70
2023-03-16T22:51:42.007Z,1.60
2023-03-16T22:54:12.024Z,1.70
2023-03-16T22:56:44.626Z,1.80
2023-03-16T22:59:12.504Z,1.27
2023-03-16T23:01:40.092Z,1.52
2023-03-16T23:04:10.177Z,1.67
2023-03-16T23:06:37.809Z,1.52
2023-03-16T23:09:05.120Z,2.00
2023-03-16T23:11:34.626Z,1.58
2023-03-16T23:14:01.823Z,1.58
2023-03-16T23:16:29.704Z,2.05
2023-03-16T23:18:56.902Z,1.60
2023-03-16T23:21:24.443Z,1.70
2023-03-16T23:24:03.140Z,2.05
2023-03-16T23:26:31.328Z,1.60
2023-03-16T23:28:59.875Z,1.50
2023-03-16T23:31:27.509Z,1.48
2023-03-16T23:33:54.781Z,1.90
2023-03-16T23:36:22.346Z,2.10
2023-03-16T23:38:49.885Z,1.70
2023-03-16T23:41:17.491Z,1.60
2023-03-16T23:43:44.966Z,1.83
2023-03-16T23:46:13.505Z,1.92
2023-03-16T23:48:41.322Z,2.10
2023-03-16T23:51:08.510Z,1.92
2023-03-16T23:53:35.990Z,1.83
2023-03-16T23:56:03.176Z,2.20
2023-03-16T23:58:30.388Z,1.92
